createdAt,value
2018-10-17T00:00:04.518Z,30.67
2018-10-17T00:02:33.021Z,29.77
2018-10-17T00:05:00.690Z,28.33
2018-10-17T00:07:30.019Z,28.90
2018-10-17T00:09:57.751Z,27.40
2018-10-17T00:12:25.720Z,27.57
2018-10-17T00:14:53.534Z,28.40
2018-10-17T00:17:22.087Z,26.67
2018-10-17T00:19:49.930Z,26.17
2018-10-17T00:22:17.901Z,28.40
2018-10-17T00:24:47.206Z,24.57
2018-10-17T00:27:15.992Z,25.17
2018-10-17T00:29:44.324Z,29.67
2018-10-17T00:32:12.282Z,30.70
2018-10-17T00:34:41.480Z,26.43
2018-10-17T00:37:09.429Z,27.20
2018-10-17T00:39:39.779Z,28.97
2018-10-17T00:42:07.657Z,25.80
2018-10-17T00:44:35.539Z,25.03
2018-10-17T00:47:04.630Z,25.50
2018-10-17T00:49:33.357Z,27.40
2018-10-17T00:52:01.379Z,25.10
2018-10-17T00:54:29.361Z,24.80
2018-10-17T00:56:58.741Z,25.27
2018-10-17T00:59:27.673Z,26.33
2018-10-17T01:01:56.252Z,24.10
2018-10-17T01:04:24.016Z,25.60
2018-10-17T01:06:51.888Z,27.07
2018-10-17T01:09:19.969Z,25.03
2018-10-17T01:11:48.718Z,23.97
2018-10-17T01:14:16.473Z,25.20
2018-10-17T01:16:45.104Z,24.83
2018-10-17T01:19:14.302Z,26.53
2018-10-17T01:21:42.297Z,24.70
2018-10-17T01:24:10.094Z,24.10
2018-10-17T01:26:37.879Z,23.67
2018-10-17T01:29:06.473Z,24.67
2018-10-17T01:31:34.378Z,23.20
2018-10-17T01:34:03.280Z,24.87
2018-10-17T01:36:31.056Z,25.03
2018-10-17T01:38:58.907Z,22.70
2018-10-17T01:41:26.637Z,23.60
2018-10-17T01:43:55.091Z,26.17
2018-10-17T01:46:22.911Z,24.83
2018-10-17T01:48:50.920Z,24.00
2018-10-17T01:51:18.961Z,25.87
2018-10-17T01:53:46.856Z,23.83
2018-10-17T01:56:14.858Z,22.47
2018-10-17T01:58:42.818Z,25.47
2018-10-17T02:01:10.863Z,23.67
2018-10-17T02:03:38.663Z,23.23
2018-10-17T02:06:07.016Z,23.60
2018-10-17T02:08:35.060Z,22.70
2018-10-17T02:11:03.687Z,21.83
2018-10-17T02:13:31.565Z,20.80
2018-10-17T02:16:00.505Z,24.80
2018-10-17T02:18:29.397Z,20.80
2018-10-17T02:20:57.242Z,24.40
2018-10-17T02:23:25.757Z,24.50
2018-10-17T02:25:53.608Z,22.60
2018-10-17T02:28:21.605Z,21.93
2018-10-17T02:30:49.414Z,22.97
2018-10-17T02:33:17.494Z,24.77
2018-10-17T02:35:45.529Z,23.40
2018-10-17T02:38:14.083Z,22.97
2018-10-17T02:40:41.925Z,22.87
2018-10-17T02:43:09.854Z,21.30
2018-10-17T02:45:38.366Z,22.20
2018-10-17T02:48:06.958Z,20.70
2018-10-17T02:50:35.987Z,22.60
2018-10-17T02:53:03.775Z,21.57
2018-10-17T02:55:32.430Z,24.87
2018-10-17T02:58:01.571Z,23.90
2018-10-17T03:00:30.430Z,22.70
2018-10-17T03:02:58.491Z,23.77
2018-10-17T03:05:26.715Z,26.67
2018-10-17T03:07:55.654Z,22.33
2018-10-17T03:10:23.984Z,23.10
2018-10-17T03:12:52.506Z,27.20
2018-10-17T03:15:21.916Z,24.10
2018-10-17T03:17:49.559Z,24.60
2018-10-17T03:20:17.248Z,23.87
2018-10-17T03:22:44.778Z,27.50
2018-10-17T03:25:12.413Z,26.40
2018-10-17T03:27:40.067Z,27.20
2018-10-17T03:30:07.562Z,29.53
2018-10-17T03:32:35.194Z,29.20
2018-10-17T03:35:02.965Z,24.90
2018-10-17T03:37:30.570Z,27.50
2018-10-17T03:39:58.380Z,30.60
2018-10-17T03:42:26.999Z,29.47
2018-10-17T03:44:56.095Z,31.10
2018-10-17T03:47:24.016Z,30.40
2018-10-17T03:49:51.804Z,28.23
2018-10-17T03:52:19.957Z,29.90
2018-10-17T03:54:47.601Z,29.27
2018-10-17T03:57:15.419Z,29.17
2018-10-17T03:59:43.343Z,32.30
2018-10-17T04:02:13.009Z,32.40
2018-10-17T04:04:41.828Z,33.93
2018-10-17T04:07:09.793Z,33.47
2018-10-17T04:09:38.927Z,32.80
2018-10-17T04:12:06.983Z,33.70
2018-10-17T04:14:34.919Z,34.63
2018-10-17T04:17:03.658Z,35.70
2018-10-17T04:19:31.729Z,36.77
2018-10-17T04:21:59.676Z,35.47
2018-10-17T04:24:27.725Z,35.83
2018-10-17T04:26:56.291Z,35.80
2018-10-17T04:29:24.330Z,41.37
2018-10-17T04:31:52.755Z,38.33
2018-10-17T04:34:20.583Z,38.10
2018-10-17T04:36:49.592Z,38.93
2018-10-17T04:39:17.661Z,39.20
2018-10-17T04:41:46.067Z,37.90
2018-10-17T04:44:13.891Z,39.10
2018-10-17T04:46:41.946Z,42.10
2018-10-17T04:49:10.284Z,38.60
2018-10-17T04:51:38.121Z,39.33
2018-10-17T04:54:07.134Z,39.13
2018-10-17T04:56:35.923Z,40.20
2018-10-17T04:59:04.948Z,40.87
2018-10-17T05:01:35.389Z,38.80
2018-10-17T05:04:03.168Z,37.67
2018-10-17T05:06:31.568Z,37.33
2018-10-17T05:08:59.614Z,36.50
2018-10-17T05:11:28.521Z,39.10
2018-10-17T05:13:56.370Z,36.97
2018-10-17T05:16:24.471Z,38.10
2018-10-17T05:18:53.238Z,39.03
2018-10-17T05:21:21.200Z,38.30
2018-10-17T05:23:49.276Z,37.53
2018-10-17T05:26:17.222Z,38.60
2018-10-17T05:28:45.216Z,40.07
2018-10-17T05:31:14.907Z,37.20
2018-10-17T05:33:42.481Z,40.17
2018-10-17T05:36:10.886Z,41.30
2018-10-17T05:38:38.805Z,35.90
2018-10-17T05:41:07.273Z,36.87
2018-10-17T05:43:35.029Z,34.27
2018-10-17T05:46:02.871Z,39.40
2018-10-17T05:48:30.692Z,35.20
2018-10-17T05:50:58.570Z,39.27
2018-10-17T05:53:28.170Z,36.30
2018-10-17T05:55:55.918Z,37.23
2018-10-17T05:58:24.004Z,39.77
2018-10-17T06:00:52.576Z,41.10
2018-10-17T06:03:20.524Z,36.57
2018-10-17T06:05:48.388Z,38.47
2018-10-17T06:08:16.160Z,43.23
2018-10-17T06:10:44.367Z,39.77
2018-10-17T06:13:13.099Z,38.77
2018-10-17T06:15:41.707Z,36.57
2018-10-17T06:18:09.478Z,37.93
2018-10-17T06:20:37.205Z,40.17
2018-10-17T06:23:05.206Z,41.57
2018-10-17T06:25:33.321Z,41.40
2018-10-17T06:28:01.044Z,39.97
2018-10-17T06:30:29.219Z,39.63
2018-10-17T06:32:57.819Z,41.20
2018-10-17T06:35:25.832Z,38.87
2018-10-17T06:37:53.768Z,38.77
2018-10-17T06:40:21.682Z,39.97
2018-10-17T06:42:49.653Z,39.70
2018-10-17T06:45:17.582Z,41.13
2018-10-17T06:47:45.507Z,40.50
2018-10-17T06:50:14.035Z,42.57
2018-10-17T06:52:41.919Z,39.87
2018-10-17T06:55:10.068Z,41.53
2018-10-17T06:57:38.320Z,39.87
2018-10-17T07:00:07.933Z,39.57
2018-10-17T07:02:36.844Z,41.63
2018-10-17T07:05:05.048Z,39.90
2018-10-17T07:07:32.706Z,38.80
2018-10-17T07:10:00.385Z,46.73
2018-10-17T07:12:28.077Z,35.60
2018-10-17T07:14:55.950Z,37.70
2018-10-17T07:17:24.192Z,35.60
2018-10-17T07:19:51.921Z,39.30
2018-10-17T07:22:19.734Z,36.87
2018-10-17T07:24:47.588Z,36.07
2018-10-17T07:27:15.839Z,33.73
2018-10-17T07:29:44.069Z,34.27
2018-10-17T07:32:12.147Z,35.70
2018-10-17T07:34:40.586Z,36.03
2018-10-17T07:37:08.839Z,34.40
2018-10-17T07:39:36.724Z,33.70
2018-10-17T07:42:04.753Z,36.60
2018-10-17T07:44:32.384Z,35.13
2018-10-17T07:47:00.114Z,38.80
2018-10-17T07:49:27.777Z,37.80
2018-10-17T07:51:55.408Z,38.67
2018-10-17T07:54:23.019Z,35.33
2018-10-17T07:56:50.713Z,35.87
2018-10-17T07:59:18.330Z,38.33
2018-10-17T08:01:47.399Z,35.37
2018-10-17T08:04:15.327Z,36.43
2018-10-17T08:06:43.284Z,34.30
2018-10-17T08:09:11.987Z,35.63
2018-10-17T08:11:39.979Z,34.00
2018-10-17T08:14:08.272Z,33.50
2018-10-17T08:16:36.103Z,33.60
2018-10-17T08:19:04.038Z,35.73
2018-10-17T08:21:32.065Z,32.70
2018-10-17T08:23:59.930Z,32.90
2018-10-17T08:26:27.933Z,32.10
2018-10-17T08:28:55.665Z,30.60
2018-10-17T08:31:23.945Z,32.40
2018-10-17T08:33:52.255Z,31.40
2018-10-17T08:36:21.677Z,32.37
2018-10-17T08:38:49.250Z,29.83
2018-10-17T08:41:17.095Z,28.77
2018-10-17T08:43:44.958Z,31.03
2018-10-17T08:46:14.634Z,29.23
2018-10-17T08:48:43.022Z,29.13
2018-10-17T08:51:12.430Z,28.83
2018-10-17T08:53:40.998Z,28.10
2018-10-17T08:56:09.604Z,28.33
2018-10-17T08:58:38.943Z,28.80
2018-10-17T09:01:08.658Z,29.30
2018-10-17T09:03:36.211Z,29.37
2018-10-17T09:06:03.954Z,28.57
2018-10-17T09:08:31.551Z,29.77
2018-10-17T09:10:59.219Z,30.10
2018-10-17T09:13:26.865Z,29.40
2018-10-17T09:15:54.630Z,29.83
2018-10-17T09:18:22.335Z,28.07
2018-10-17T09:20:50.323Z,29.27
2018-10-17T09:23:17.751Z,30.00
2018-10-17T09:25:45.378Z,28.33
2018-10-17T09:28:13.057Z,26.63
2018-10-17T09:30:40.749Z,27.43
2018-10-17T09:33:08.282Z,27.47
2018-10-17T09:35:35.957Z,28.30
2018-10-17T09:38:03.618Z,26.50
2018-10-17T09:40:31.226Z,24.63
2018-10-17T09:42:58.845Z,23.90
2018-10-17T09:45:26.445Z,24.70
2018-10-17T09:47:54.189Z,24.00
2018-10-17T09:50:21.808Z,25.73
2018-10-17T09:52:49.674Z,24.10
2018-10-17T09:55:17.252Z,23.90
2018-10-17T09:57:44.886Z,24.50
2018-10-17T10:00:19.164Z,24.37
2018-10-17T10:02:47.298Z,23.30
2018-10-17T10:05:15.165Z,23.43
2018-10-17T10:07:43.274Z,22.50
2018-10-17T10:10:11.819Z,22.30
2018-10-17T10:12:41.694Z,21.63
2018-10-17T10:15:09.311Z,22.90
2018-10-17T10:17:36.951Z,21.87
2018-10-17T10:20:04.626Z,21.00
2018-10-17T10:22:32.351Z,20.60
2018-10-17T10:25:00.941Z,19.73
2018-10-17T10:27:28.775Z,20.00
2018-10-17T10:29:56.509Z,19.43
2018-10-17T10:32:24.075Z,19.80
2018-10-17T10:34:51.728Z,21.63
2018-10-17T10:37:19.295Z,17.80
2018-10-17T10:39:46.900Z,20.10
2018-10-17T10:42:14.597Z,19.43
2018-10-17T10:44:42.270Z,18.67
2018-10-17T10:47:09.914Z,17.80
2018-10-17T10:49:38.027Z,18.00
2018-10-17T10:52:06.074Z,20.20
2018-10-17T10:54:35.225Z,17.77
2018-10-17T10:57:03.317Z,18.57
2018-10-17T10:59:32.762Z,16.37
2018-10-17T11:02:00.535Z,15.03
2018-10-17T11:04:28.682Z,14.57
2018-10-17T11:06:56.616Z,14.83
2018-10-17T11:09:25.244Z,13.33
2018-10-17T11:11:54.208Z,12.73
2018-10-17T11:14:22.352Z,12.77
2018-10-17T11:16:50.127Z,12.87
2018-10-17T11:19:18.298Z,12.30
2018-10-17T11:21:46.080Z,12.73
2018-10-17T11:24:14.104Z,10.77
2018-10-17T11:26:43.098Z,10.80
2018-10-17T11:29:11.961Z,12.23
2018-10-17T11:31:39.877Z,12.10
2018-10-17T11:34:08.178Z,12.40
2018-10-17T11:36:37.890Z,12.77
2018-10-17T11:39:09.702Z,11.53
2018-10-17T11:41:38.989Z,10.90
2018-10-17T11:44:06.667Z,11.57
2018-10-17T11:46:35.028Z,13.17
2018-10-17T11:49:03.061Z,11.30
2018-10-17T11:51:31.158Z,11.93
2018-10-17T11:53:58.765Z,10.90
2018-10-17T11:56:26.593Z,11.67
2018-10-17T11:58:55.538Z,11.00
2018-10-17T12:01:24.047Z,10.23
2018-10-17T12:03:52.820Z,10.70
2018-10-17T12:06:22.143Z,11.60
2018-10-17T12:08:50.056Z,11.17
2018-10-17T12:11:17.932Z,11.93
2018-10-17T12:13:45.814Z,10.70
2018-10-17T12:16:13.581Z,10.07
2018-10-17T12:18:41.356Z,11.03
2018-10-17T12:21:09.316Z,10.40
2018-10-17T12:23:36.965Z,10.33
2018-10-17T12:26:04.810Z,8.83
2018-10-17T12:28:32.805Z,10.67
2018-10-17T12:31:01.709Z,9.70
2018-10-17T12:33:30.271Z,8.60
2018-10-17T12:35:57.944Z,9.03
2018-10-17T12:38:25.802Z,9.10
2018-10-17T12:40:53.600Z,9.80
2018-10-17T12:43:21.475Z,8.47
2018-10-17T12:45:49.659Z,8.77
2018-10-17T12:48:17.393Z,9.20
2018-10-17T12:50:45.131Z,9.17
2018-10-17T12:53:13.020Z,8.77
2018-10-17T12:55:40.495Z,9.77
2018-10-17T12:58:08.078Z,10.13
2018-10-17T13:00:35.856Z,9.00
2018-10-17T13:03:03.935Z,9.73
2018-10-17T13:05:32.480Z,8.80
2018-10-17T13:08:00.368Z,9.57
2018-10-17T13:10:28.459Z,10.10
2018-10-17T13:12:56.943Z,10.80
2018-10-17T13:15:25.066Z,10.30
2018-10-17T13:17:53.517Z,10.73
2018-10-17T13:20:21.588Z,10.60
2018-10-17T13:22:50.292Z,10.33
2018-10-17T13:25:18.475Z,10.57
2018-10-17T13:27:46.866Z,9.37
2018-10-17T13:30:15.330Z,9.93
2018-10-17T13:32:43.223Z,10.13
2018-10-17T13:35:11.349Z,10.60
2018-10-17T13:37:39.234Z,9.90
2018-10-17T13:40:07.134Z,10.10
2018-10-17T13:42:35.496Z,9.83
2018-10-17T13:45:04.378Z,10.90
2018-10-17T13:47:32.243Z,9.93
2018-10-17T13:50:00.041Z,12.50
2018-10-17T13:52:28.317Z,11.63
2018-10-17T13:54:56.967Z,10.80
2018-10-17T13:57:26.475Z,10.27
2018-10-17T13:59:54.249Z,11.40
2018-10-17T14:02:22.137Z,11.30
2018-10-17T14:04:50.083Z,10.00
2018-10-17T14:07:18.027Z,11.10
2018-10-17T14:09:46.044Z,11.77
2018-10-17T14:12:14.292Z,12.37
2018-10-17T14:14:42.204Z,11.37
2018-10-17T14:17:10.305Z,10.60
2018-10-17T14:19:38.942Z,11.30
2018-10-17T14:22:07.036Z,11.40
2018-10-17T14:24:35.011Z,10.53
2018-10-17T14:27:03.648Z,9.40
2018-10-17T14:29:31.841Z,11.17
2018-10-17T14:31:59.587Z,12.40
2018-10-17T14:34:27.620Z,12.67
2018-10-17T14:36:55.456Z,11.30
2018-10-17T14:39:23.710Z,12.60
2018-10-17T14:41:51.405Z,12.40
2018-10-17T14:44:19.306Z,10.97
2018-10-17T14:46:47.686Z,12.00
2018-10-17T14:49:15.626Z,12.40
2018-10-17T14:51:44.402Z,12.63
2018-10-17T14:54:12.273Z,12.73
2018-10-17T14:56:40.130Z,12.60
2018-10-17T14:59:07.989Z,11.77
2018-10-17T15:01:36.087Z,11.70
2018-10-17T15:04:04.134Z,11.33
2018-10-17T15:06:33.161Z,12.17
2018-10-17T15:09:01.707Z,12.37
2018-10-17T15:11:29.544Z,11.73
2018-10-17T15:13:57.314Z,13.40
2018-10-17T15:16:25.216Z,15.23
2018-10-17T15:18:53.255Z,15.50
2018-10-17T15:21:21.134Z,18.83
2018-10-17T15:23:49.051Z,16.53
2018-10-17T15:26:17.142Z,14.00
2018-10-17T15:28:45.063Z,14.67
2018-10-17T15:31:14.726Z,12.87
2018-10-17T15:33:44.013Z,11.40
2018-10-17T15:36:12.580Z,12.83
2018-10-17T15:38:40.384Z,11.40
2018-10-17T15:41:08.254Z,11.80
2018-10-17T15:43:35.998Z,12.00
2018-10-17T15:46:04.007Z,15.17
2018-10-17T15:48:32.453Z,15.53
2018-10-17T15:51:00.290Z,16.20
2018-10-17T15:53:27.908Z,15.93
2018-10-17T15:55:55.485Z,18.23
2018-10-17T15:58:23.429Z,18.00
2018-10-17T16:00:51.298Z,14.87
2018-10-17T16:03:20.014Z,16.60
2018-10-17T16:05:47.840Z,17.80
2018-10-17T16:08:17.092Z,19.23
2018-10-17T16:10:44.758Z,19.10
2018-10-17T16:13:12.340Z,19.83
2018-10-17T16:15:41.050Z,19.30
2018-10-17T16:18:10.506Z,20.73
2018-10-17T16:20:38.062Z,20.10
2018-10-17T16:23:05.884Z,21.33
2018-10-17T16:25:33.498Z,21.33
2018-10-17T16:28:01.293Z,19.60
2018-10-17T16:30:29.063Z,19.70
2018-10-17T16:32:56.514Z,20.60
2018-10-17T16:35:24.118Z,21.87
2018-10-17T16:37:51.819Z,23.60
2018-10-17T16:40:19.482Z,23.67
2018-10-17T16:42:48.895Z,24.30
2018-10-17T16:45:16.794Z,22.70
2018-10-17T16:47:45.847Z,27.13
2018-10-17T16:50:13.645Z,26.63
2018-10-17T16:52:41.089Z,25.30
2018-10-17T16:55:09.183Z,29.20
2018-10-17T16:57:37.157Z,27.20
2018-10-17T17:00:05.654Z,31.93
2018-10-17T17:02:33.390Z,30.17
2018-10-17T17:05:01.185Z,31.47
2018-10-17T17:07:28.764Z,30.57
2018-10-17T17:09:56.377Z,32.60
2018-10-17T17:12:24.046Z,32.07
2018-10-17T17:14:51.709Z,30.53
2018-10-17T17:17:19.416Z,29.83
2018-10-17T17:19:47.885Z,31.27
2018-10-17T17:22:16.278Z,33.20
2018-10-17T17:24:44.311Z,33.20
2018-10-17T17:27:13.364Z,32.00
2018-10-17T17:29:41.804Z,33.07
2018-10-17T17:32:09.740Z,33.90
2018-10-17T17:34:37.663Z,31.77
2018-10-17T17:37:06.333Z,33.27
2018-10-17T17:39:34.369Z,32.77
2018-10-17T17:42:02.364Z,32.83
2018-10-17T17:44:30.234Z,35.20
2018-10-17T17:46:59.130Z,33.63
2018-10-17T17:49:27.763Z,31.90
2018-10-17T17:51:55.925Z,34.67
2018-10-17T17:54:24.059Z,35.83
2018-10-17T17:56:52.667Z,37.67
2018-10-17T17:59:21.174Z,37.13
2018-10-17T18:01:49.105Z,37.27
2018-10-17T18:04:18.097Z,34.57
2018-10-17T18:06:46.046Z,37.70
2018-10-17T18:09:13.886Z,35.00
2018-10-17T18:11:42.623Z,36.50
2018-10-17T18:14:11.523Z,37.10
2018-10-17T18:16:40.411Z,36.90
2018-10-17T18:19:08.386Z,36.87
2018-10-17T18:21:36.218Z,35.20
2018-10-17T18:24:04.145Z,34.80
2018-10-17T18:26:31.870Z,33.80
2018-10-17T18:29:00.019Z,39.20
2018-10-17T18:31:27.842Z,35.50
2018-10-17T18:33:57.326Z,36.50
2018-10-17T18:36:25.114Z,36.43
2018-10-17T18:38:53.220Z,38.83
2018-10-17T18:41:21.081Z,35.57
2018-10-17T18:43:49.572Z,38.67
2018-10-17T18:46:17.500Z,36.50
2018-10-17T18:48:46.225Z,37.77
2018-10-17T18:51:14.706Z,39.10
2018-10-17T18:53:43.873Z,39.33
2018-10-17T18:56:11.734Z,41.17
2018-10-17T18:58:40.279Z,37.30
2018-10-17T19:01:08.834Z,37.10
2018-10-17T19:03:38.130Z,38.50
2018-10-17T19:06:06.226Z,39.40
2018-10-17T19:08:34.029Z,43.03
2018-10-17T19:11:03.185Z,40.13
2018-10-17T19:13:31.043Z,42.40
2018-10-17T19:15:58.811Z,42.80
2018-10-17T19:18:26.699Z,43.70
2018-10-17T19:20:55.167Z,42.63
2018-10-17T19:23:23.098Z,41.70
2018-10-17T19:25:52.406Z,43.87
2018-10-17T19:28:20.553Z,45.70
2018-10-17T19:30:49.543Z,41.53
2018-10-17T19:33:17.600Z,44.03
2018-10-17T19:35:46.292Z,42.50
2018-10-17T19:38:14.888Z,44.80
2018-10-17T19:40:42.798Z,42.07
2018-10-17T19:43:10.788Z,45.03
2018-10-17T19:45:38.712Z,45.20
2018-10-17T19:48:06.482Z,45.30
2018-10-17T19:50:34.499Z,47.43
2018-10-17T19:53:03.928Z,44.87
2018-10-17T19:55:31.851Z,42.30
2018-10-17T19:58:00.861Z,44.10
2018-10-17T20:00:29.381Z,46.13
2018-10-17T20:02:57.142Z,45.30
2018-10-17T20:05:26.033Z,45.60
2018-10-17T20:07:54.596Z,44.17
2018-10-17T20:10:22.863Z,44.63
2018-10-17T20:12:50.731Z,47.43
2018-10-17T20:15:18.579Z,46.90
2018-10-17T20:17:46.690Z,45.77
2018-10-17T20:20:14.510Z,45.60
2018-10-17T20:22:42.927Z,45.07
2018-10-17T20:25:11.268Z,44.67
2018-10-17T20:27:40.193Z,45.20
2018-10-17T20:30:08.978Z,47.33
2018-10-17T20:32:39.026Z,46.73
2018-10-17T20:35:08.220Z,43.93
2018-10-17T20:37:36.121Z,46.90
2018-10-17T20:40:04.148Z,47.10
2018-10-17T20:42:32.120Z,46.07
2018-10-17T20:45:00.062Z,47.27
2018-10-17T20:47:29.067Z,46.03
2018-10-17T20:50:04.120Z,45.17
2018-10-17T20:52:32.005Z,45.67
2018-10-17T20:54:59.613Z,45.40
2018-10-17T20:57:27.834Z,43.17
2018-10-17T20:59:55.447Z,46.60
2018-10-17T21:02:23.345Z,46.90
2018-10-17T21:04:50.994Z,48.47
2018-10-17T21:07:18.647Z,48.50
2018-10-17T21:09:46.293Z,44.67
2018-10-17T21:12:13.880Z,47.13
2018-10-17T21:14:41.512Z,47.17
2018-10-17T21:17:09.177Z,51.67
2018-10-17T21:19:36.783Z,48.70
2018-10-17T21:22:05.539Z,45.93
2018-10-17T21:24:33.598Z,45.50
2018-10-17T21:27:01.315Z,44.97
2018-10-17T21:29:28.975Z,46.67
2018-10-17T21:31:56.625Z,44.80
2018-10-17T21:34:24.323Z,48.30
2018-10-17T21:36:52.115Z,48.70
2018-10-17T21:39:19.963Z,45.53
2018-10-17T21:41:47.710Z,46.47
2018-10-17T21:44:15.488Z,49.10
2018-10-17T21:46:43.137Z,47.87
2018-10-17T21:49:11.042Z,46.60
2018-10-17T21:51:39.323Z,49.00
2018-10-17T21:54:07.176Z,46.87
2018-10-17T21:56:34.852Z,46.60
2018-10-17T21:59:02.549Z,47.67
2018-10-17T22:01:30.192Z,47.17
2018-10-17T22:03:57.982Z,46.73
2018-10-17T22:06:25.782Z,44.20
2018-10-17T22:08:53.458Z,45.47
2018-10-17T22:11:21.149Z,45.90
2018-10-17T22:13:48.764Z,43.97
2018-10-17T22:16:16.511Z,45.20
2018-10-17T22:18:44.180Z,45.13
2018-10-17T22:21:14.342Z,42.30
2018-10-17T22:23:43.099Z,46.07
2018-10-17T22:26:10.935Z,45.80
2018-10-17T22:28:39.586Z,43.50
2018-10-17T22:31:07.876Z,44.50
2018-10-17T22:33:35.640Z,43.10
2018-10-17T22:36:03.258Z,41.00
2018-10-17T22:38:30.840Z,40.50
2018-10-17T22:40:58.397Z,41.07
2018-10-17T22:43:27.414Z,41.80
2018-10-17T22:45:55.159Z,42.07
2018-10-17T22:48:22.819Z,48.70
2018-10-17T22:50:50.608Z,45.87
2018-10-17T22:53:18.279Z,44.97
2018-10-17T22:55:45.911Z,45.10
2018-10-17T22:58:13.751Z,45.40
2018-10-17T23:00:41.482Z,42.10
2018-10-17T23:03:09.168Z,43.87
2018-10-17T23:05:36.967Z,40.37
2018-10-17T23:08:04.629Z,43.60
2018-10-17T23:10:33.014Z,44.47
2018-10-17T23:13:00.818Z,45.67
2018-10-17T23:15:28.605Z,40.57
2018-10-17T23:17:56.322Z,43.00
2018-10-17T23:20:24.070Z,39.73
2018-10-17T23:22:51.669Z,44.17
2018-10-17T23:25:19.254Z,43.30
2018-10-17T23:27:46.915Z,40.93
2018-10-17T23:30:14.690Z,44.50
2018-10-17T23:32:42.371Z,44.10
2018-10-17T23:35:10.112Z,42.77
2018-10-17T23:37:37.914Z,44.07
2018-10-17T23:40:05.724Z,43.20
2018-10-17T23:42:33.408Z,43.40
2018-10-17T23:45:01.174Z,42.30
2018-10-17T23:47:28.889Z,41.17
2018-10-17T23:49:56.759Z,41.20
2018-10-17T23:52:24.412Z,41.57
2018-10-17T23:54:52.143Z,44.67
2018-10-17T23:57:19.831Z,41.33
2018-10-17T23:59:47.445Z,42.20
